Time;durP1;ratioP1;P1;durP2;ratioP2;P2;SDS_P1;SDS_P2;PMS_P1;PMS_P2;Temp;Humidity;BMP_temperature;BMP_pressure;BME280_temperature;BME280_humidity;BME280_pressure;Samples;Min_cycle;Max_cycle;Signal;HPM_P1;HPM_P2
2022/12/28 00:01:18;;;;;;;3.67;1.20;;;;;;;2.39;71.48;100405.32;1746860;82;20519;-67
2022/12/28 00:03:47;;;;;;;4.87;1.37;;;;;;;2.37;71.50;100400.64;1758610;81;21026;-67
2022/12/28 00:06:15;;;;;;;4.08;1.27;;;;;;;2.38;71.49;100408.00;1760078;80;21042;-67
2022/12/28 00:08:41;;;;;;;3.87;1.50;;;;;;;2.38;71.39;100402.78;1743643;82;21063;-68
2022/12/28 00:11:12;;;;;;;5.85;1.60;;;;;;;2.41;71.38;100400.03;1743059;82;21867;-67
2022/12/28 00:13:39;;;;;;;3.92;1.37;;;;;;;2.42;71.30;100408.27;1737515;82;20966;-67
2022/12/28 00:16:34;;;;;;;3.50;1.10;;;;;;;2.43;71.19;100399.53;1745900;82;21065;-67
2022/12/28 00:19:04;;;;;;;3.35;1.25;;;;;;;2.45;71.18;100405.52;1736981;82;21027;-68
2022/12/28 00:21:33;;;;;;;4.72;1.30;;;;;;;2.45;71.09;100399.84;1733130;81;21637;-67
2022/12/28 00:23:59;;;;;;;4.33;1.12;;;;;;;2.44;71.09;100400.75;1745609;82;21889;-66
2022/12/28 00:26:28;;;;;;;5.12;1.50;;;;;;;2.45;71.00;100394.62;1747872;82;21461;-68
2022/12/28 00:28:56;;;;;;;3.35;1.10;;;;;;;2.45;70.88;100403.75;1739683;82;21000;-66
2022/12/28 00:31:23;;;;;;;4.20;1.52;;;;;;;2.48;70.75;100409.27;1744759;81;21012;-67
2022/12/28 00:33:50;;;;;;;2.35;1.00;;;;;;;2.48;70.56;100407.97;1738599;82;20970;-67
2022/12/28 00:36:16;;;;;;;3.70;1.20;;;;;;;2.51;70.47;100411.73;1743013;80;22557;-67
2022/12/28 00:38:43;;;;;;;2.70;1.07;;;;;;;2.51;70.33;100410.42;1751982;80;20943;-68
2022/12/28 00:41:10;;;;;;;4.28;1.07;;;;;;;2.50;70.10;100404.37;1742741;81;21020;-67
2022/12/28 00:43:37;;;;;;;4.20;1.00;;;;;;;2.51;70.07;100402.61;1736049;81;21114;-67
2022/12/28 00:46:05;;;;;;;4.67;1.10;;;;;;;2.51;70.02;100410.42;1748665;81;21091;-67
2022/12/28 00:48:34;;;;;;;3.58;1.77;;;;;;;2.53;69.91;100417.74;1754367;80;21880;-68
2022/12/28 00:51:07;;;;;;;4.80;1.37;;;;;;;2.53;69.88;100422.50;1746260;81;20977;-67
2022/12/28 00:53:34;;;;;;;4.12;1.30;;;;;;;2.53;69.75;100423.80;1729927;82;21127;-67
2022/12/28 00:56:11;;;;;;;3.12;1.20;;;;;;;2.55;69.67;100418.52;1735794;82;21363;-67
2022/12/28 00:58:38;;;;;;;4.67;1.25;;;;;;;2.56;69.70;100424.95;1732099;82;21058;-66
2022/12/28 01:01:05;;;;;;;4.22;1.40;;;;;;;2.58;69.58;100424.88;1746115;81;21827;-66
2022/12/28 01:03:33;;;;;;;3.52;1.20;;;;;;;2.58;69.53;100440.06;1761471;81;20957;-67
2022/12/28 01:06:05;;;;;;;3.55;1.05;;;;;;;2.59;69.49;100430.48;1748218;81;20962;-66
2022/12/28 01:08:32;;;;;;;4.70;1.20;;;;;;;2.61;69.56;100427.83;1748484;82;21444;-66
2022/12/28 01:10:59;;;;;;;5.37;1.50;;;;;;;2.62;69.49;100433.43;1737865;81;21765;-67
2022/12/28 01:13:25;;;;;;;3.00;1.20;;;;;;;2.62;69.57;100429.06;1744005;81;22617;-66
2022/12/28 01:15:53;;;;;;;4.67;1.40;;;;;;;2.63;69.57;100434.66;1777904;80;20976;-66
2022/12/28 01:18:19;;;;;;;4.08;1.32;;;;;;;2.62;69.66;100443.41;1748574;81;21024;-66
2022/12/28 01:20:46;;;;;;;4.28;1.50;;;;;;;2.62;69.72;100444.70;1726628;80;21002;-66
2022/12/28 01:23:13;;;;;;;5.92;1.67;;;;;;;2.64;69.76;100435.50;1728532;82;20998;-67
2022/12/28 01:25:40;;;;;;;3.35;1.30;;;;;;;2.63;69.83;100445.09;1742489;81;21964;-68
2022/12/28 01:28:06;;;;;;;5.28;1.40;;;;;;;2.63;69.85;100451.61;1740054;81;21075;-67
2022/12/28 01:30:33;;;;;;;4.03;1.32;;;;;;;2.65;69.91;100446.32;1733010;81;21087;-67
2022/12/28 01:33:00;;;;;;;4.53;1.50;;;;;;;2.65;69.96;100451.08;1743346;81;20972;-66
2022/12/28 01:35:27;;;;;;;4.80;1.50;;;;;;;2.67;70.01;100450.54;1744258;81;20989;-68
2022/12/28 01:37:56;;;;;;;3.40;1.42;;;;;;;2.67;70.01;100444.02;1730840;81;21797;-67
2022/12/28 01:40:22;;;;;;;5.28;1.30;;;;;;;2.66;70.06;100442.33;1740270;81;21094;-67
2022/12/28 01:42:49;;;;;;;3.98;1.52;;;;;;;2.68;70.12;100446.17;1733352;80;21043;-68
2022/12/28 01:45:20;;;;;;;3.92;1.40;;;;;;;2.67;70.15;100451.84;1733360;81;21003;-66
2022/12/28 01:47:51;;;;;;;3.00;1.27;;;;;;;2.68;70.17;100460.52;1739136;81;21043;-66
2022/12/28 01:50:25;;;;;;;4.87;1.57;;;;;;;2.66;70.27;100458.44;1735691;81;21964;-67
2022/12/28 01:52:55;;;;;;;3.52;1.32;;;;;;;2.66;70.29;100458.44;1714065;82;21043;-66
2022/12/28 01:55:25;;;;;;;5.87;1.47;;;;;;;2.66;70.37;100458.44;1730091;81;20969;-66
2022/12/28 01:58:08;;;;;;;3.85;1.45;;;;;;;2.65;70.27;100464.11;1730106;81;21027;-66
2022/12/28 02:00:35;;;;;;;3.80;1.35;;;;;;;2.64;70.35;100461.58;1721001;81;21012;-66
2022/12/28 02:03:08;;;;;;;6.47;1.50;;;;;;;2.64;70.39;100462.89;1745698;81;22005;-67
2022/12/28 02:05:39;;;;;;;4.70;1.62;;;;;;;2.65;70.44;100461.97;1743712;82;21052;-67
2022/12/28 02:08:24;;;;;;;4.37;1.60;;;;;;;2.65;70.44;100465.42;1758719;80;20989;-67
2022/12/28 02:10:52;;;;;;;7.50;1.65;;;;;;;2.65;70.39;100473.24;1717043;82;21013;-67
2022/12/28 02:13:18;;;;;;;5.47;1.72;;;;;;;2.65;70.41;100473.24;1745654;82;20993;-67
2022/12/28 02:15:46;;;;;;;6.33;1.80;;;;;;;2.65;70.44;100474.55;1732947;81;22093;-67
2022/12/28 02:18:14;;;;;;;6.33;1.95;;;;;;;2.66;70.43;100468.88;1744151;81;21012;-66
2022/12/28 02:21:11;;;;;;;4.65;1.45;;;;;;;2.67;70.38;100462.73;1738212;80;20973;-66
2022/12/28 02:23:59;;;;;;;4.17;1.50;;;;;;;2.66;70.33;100471.02;1659765;83;21436;-66
2022/12/28 02:26:40;;;;;;;4.60;1.60;;;;;;;2.64;70.30;100474.16;1720810;81;21079;-67
2022/12/28 02:29:25;;;;;;;4.42;1.77;;;;;;;2.64;70.26;100473.31;1746807;81;21932;-66
2022/12/28 02:32:21;;;;;;;6.03;1.77;;;;;;;2.63;70.24;100478.99;1748645;81;20996;-67
2022/12/28 02:35:21;;;;;;;5.15;1.80;;;;;;;2.60;70.22;100481.71;1729755;81;21094;-66
2022/12/28 02:38:03;;;;;;;5.08;1.80;;;;;;;2.60;70.16;100483.02;1735839;81;21020;-66
2022/12/28 02:40:47;;;;;;;4.35;1.82;;;;;;;2.59;70.18;100484.78;1735769;81;21012;-66
2022/12/28 02:43:14;;;;;;;3.20;1.50;;;;;;;2.58;70.03;100481.79;1737509;81;21849;-67
2022/12/28 02:51:49;;;;;;;5.42;2.17;;;;;;;2.56;69.92;100487.53;1735690;81;21531;-66
2022/12/28 02:57:49;;;;;;;5.60;2.00;;;;;;;2.53;70.12;100505.09;1718176;81;22056;-66
2022/12/28 03:00:18;;;;;;;7.03;2.60;;;;;;;2.50;70.29;100499.98;1733516;81;21473;-67
2022/12/28 03:03:30;;;;;;;6.30;2.25;;;;;;;2.50;70.44;100493.47;1741335;80;21471;-67
2022/12/28 03:09:42;;;;;;;5.80;2.00;;;;;;;2.46;70.86;100495.84;1742285;82;21582;-66
2022/12/28 03:12:18;;;;;;;5.55;2.25;;;;;;;2.46;71.10;100497.14;1726010;82;21954;-66
2022/12/28 03:14:52;;;;;;;7.10;2.27;;;;;;;2.45;71.35;100505.88;1751214;80;20935;-66
2022/12/28 03:31:21;;;;;;;6.78;2.37;;;;;;;2.45;72.03;100517.61;1730734;81;21044;-67
2022/12/28 03:33:52;;;;;;;6.03;2.40;;;;;;;2.44;72.13;100515.91;1745177;81;20987;-66
2022/12/28 03:36:31;;;;;;;5.37;2.60;;;;;;;2.43;72.21;100515.53;1743830;81;21106;-66
2022/12/28 03:39:05;;;;;;;7.72;2.50;;;;;;;2.43;72.26;100517.68;1746707;81;21748;-66
2022/12/28 03:41:38;;;;;;;;;;;;;;;2.43;72.43;100516.84;1734601;81;21072;-67
2022/12/28 03:44:17;;;;;;;6.72;2.52;;;;;;;2.43;72.60;100511.63;1736168;81;20151;-68
2022/12/28 03:46:52;;;;;;;6.40;2.67;;;;;;;2.42;72.68;100513.84;1735100;81;20985;-67
2022/12/28 03:49:22;;;;;;;7.47;3.00;;;;;;;2.41;72.75;100520.78;1752250;81;21027;-67
2022/12/28 03:51:48;;;;;;;5.55;2.55;;;;;;;2.40;72.92;100522.16;1751333;81;21951;-67
2022/12/28 03:54:19;;;;;;;4.22;2.35;;;;;;;2.40;73.04;100520.86;1741238;81;20969;-68
2022/12/28 03:56:48;;;;;;;4.75;2.72;;;;;;;2.41;73.08;100513.42;1746744;81;21031;-66
2022/12/28 03:59:15;;;;;;;4.85;2.60;;;;;;;2.41;73.28;100516.03;1713448;82;21023;-67
2022/12/28 04:01:43;;;;;;;6.97;2.90;;;;;;;2.39;73.33;100525.68;1739690;80;21545;-66
2022/12/28 04:04:10;;;;;;;5.50;2.60;;;;;;;2.39;73.38;100537.41;1729018;80;21911;-66
2022/12/28 04:06:37;;;;;;;6.22;2.62;;;;;;;2.40;73.44;100526.91;1747555;80;21054;-66
2022/12/28 04:09:05;;;;;;;6.53;2.62;;;;;;;2.42;73.43;100532.09;1738775;81;21433;-67
2022/12/28 04:11:34;;;;;;;6.58;2.95;;;;;;;2.44;73.48;100542.83;1746667;81;21094;-67
2022/12/28 04:14:05;;;;;;;8.33;3.08;;;;;;;2.43;73.51;100541.14;1739357;81;21110;-67
2022/12/28 04:16:34;;;;;;;5.60;2.42;;;;;;;2.40;73.60;100537.80;1734000;81;21126;-66
2022/12/28 04:19:02;;;;;;;6.58;2.90;;;;;;;2.41;73.72;100538.19;1735906;81;21432;-66
2022/12/28 04:21:29;;;;;;;5.15;2.85;;;;;;;2.40;73.75;100540.41;1734008;81;21067;-66
2022/12/28 04:23:56;;;;;;;8.68;3.52;;;;;;;2.40;73.82;100540.41;1734717;81;21448;-66
2022/12/28 04:26:22;;;;;;;5.72;2.80;;;;;;;2.41;73.87;100546.01;1740337;80;21056;-67
2022/12/28 04:28:51;;;;;;;6.97;3.05;;;;;;;2.42;73.84;100548.58;1736740;81;21862;-67
2022/12/28 04:31:30;;;;;;;7.15;3.08;;;;;;;2.43;73.90;100542.45;1735664;81;21465;-67
2022/12/28 04:33:58;;;;;;;5.87;2.98;;;;;;;2.44;73.96;100548.50;1756943;80;21000;-67
2022/12/28 04:36:25;;;;;;;7.60;2.98;;;;;;;2.43;73.99;100542.91;1736702;81;21031;-68
2022/12/28 04:38:52;;;;;;;5.55;2.92;;;;;;;2.46;73.98;100555.80;1747318;81;20992;-68
2022/12/28 04:41:18;;;;;;;8.33;3.30;;;;;;;2.46;73.98;100553.19;1740136;80;21770;-69
2022/12/28 04:43:45;;;;;;;6.53;2.87;;;;;;;2.47;74.00;100552.27;1734212;82;21180;-69
2022/12/28 04:46:13;;;;;;;5.75;3.10;;;;;;;2.48;74.01;100543.08;1744084;81;20976;-69
2022/12/28 04:48:40;;;;;;;8.53;3.12;;;;;;;2.51;74.01;100553.82;1743843;80;21047;-68
2022/12/28 04:51:09;;;;;;;6.42;2.80;;;;;;;2.48;74.02;100545.69;1725245;81;21064;-68
2022/12/28 04:53:37;;;;;;;6.87;3.10;;;;;;;2.50;74.08;100560.80;1740628;81;21936;-68
2022/12/28 04:56:07;;;;;;;7.30;2.92;;;;;;;2.50;74.10;100558.64;1744721;82;21543;-69
2022/12/28 04:58:36;;;;;;;5.83;2.80;;;;;;;2.50;74.16;100562.56;1747313;81;21032;-69
2022/12/28 05:01:10;;;;;;;6.33;2.62;;;;;;;2.49;74.17;100561.72;1743442;81;21075;-69
2022/12/28 05:03:37;;;;;;;6.80;3.30;;;;;;;2.51;74.20;100570.77;1746242;80;21059;-68
2022/12/28 05:06:06;;;;;;;7.75;2.98;;;;;;;2.52;74.20;100565.97;1769447;80;21930;-67
2022/12/28 05:08:35;;;;;;;7.05;3.20;;;;;;;2.51;74.18;100573.38;1756181;81;21141;-68
2022/12/28 05:11:04;;;;;;;9.10;3.62;;;;;;;2.50;74.26;100579.50;1742122;81;21035;-72
2022/12/28 05:13:31;;;;;;;7.92;3.70;;;;;;;2.51;74.25;100583.80;1736415;80;20984;-72
2022/12/28 05:16:05;;;;;;;9.68;3.40;;;;;;;2.50;74.28;100580.35;1743518;81;21001;-70
2022/12/28 05:18:33;;;;;;;8.28;3.50;;;;;;;2.50;74.29;100581.66;1740969;81;22453;-70
2022/12/28 05:21:07;;;;;;;6.58;3.00;;;;;;;2.53;74.31;100583.31;1744195;81;21165;-70
2022/12/28 05:23:36;;;;;;;6.55;3.10;;;;;;;2.54;74.34;100588.91;1730831;81;21046;-70
2022/12/28 05:26:04;;;;;;;6.80;3.58;;;;;;;2.54;74.32;100594.13;1740813;81;21440;-69
2022/12/28 05:28:31;;;;;;;6.75;3.35;;;;;;;2.54;74.32;100591.52;1745486;81;21066;-69
2022/12/28 05:31:03;;;;;;;6.92;3.75;;;;;;;2.57;74.34;100596.59;1740124;81;22233;-73
2022/12/28 05:33:31;;;;;;;7.00;3.60;;;;;;;2.58;74.30;100595.67;1740224;81;21129;-69
2022/12/28 05:36:13;;;;;;;5.83;3.20;;;;;;;2.58;74.27;100592.61;1728750;80;21409;-70
2022/12/28 05:38:41;;;;;;;8.18;3.35;;;;;;;2.58;74.29;100595.22;1745451;80;21113;-71
2022/12/28 05:41:20;;;;;;;10.43;4.30;;;;;;;2.59;74.31;100603.42;1751842;80;21026;-69
2022/12/28 05:43:48;;;;;;;6.95;4.22;;;;;;;2.59;74.32;100607.34;1749345;81;21953;-68
2022/12/28 05:46:39;;;;;;;6.17;3.15;;;;;;;2.61;74.31;100610.36;1742694;81;21110;-73
2022/12/28 05:49:07;;;;;;;5.17;3.40;;;;;;;2.62;74.29;100622.03;1738741;81;21055;-73
2022/12/28 05:51:34;;;;;;;7.67;3.42;;;;;;;2.63;74.30;100617.66;1754944;81;21466;-73
2022/12/28 05:54:03;;;;;;;9.18;3.50;;;;;;;2.64;74.31;100621.50;1754349;81;20957;-73
2022/12/28 05:56:31;;;;;;;9.68;3.72;;;;;;;2.64;74.28;100621.50;1756774;81;21878;-73
2022/12/28 05:59:01;;;;;;;5.37;3.20;;;;;;;2.65;74.28;100626.26;1756305;81;20904;-73
2022/12/28 06:01:31;;;;;;;5.80;3.40;;;;;;;2.65;74.29;100625.80;1750229;81;21020;-73
2022/12/28 06:04:04;;;;;;;5.33;3.85;;;;;;;2.66;74.31;100635.31;1744062;81;20996;-72
2022/12/28 06:06:32;;;;;;;7.00;3.60;;;;;;;2.66;74.32;100635.77;1743798;81;21066;-73
2022/12/28 06:08:59;;;;;;;6.17;3.67;;;;;;;2.64;74.32;100637.15;1743216;81;22289;-72
2022/12/28 06:11:26;;;;;;;9.05;3.65;;;;;;;2.65;74.31;100640.14;1753654;81;20996;-72
2022/12/28 06:13:53;;;;;;;7.90;3.52;;;;;;;2.65;74.33;100637.99;1767245;81;21000;-73
2022/12/28 06:16:28;;;;;;;5.80;3.42;;;;;;;2.66;74.35;100640.53;1767533;81;21014;-73
2022/12/28 06:18:55;;;;;;;5.83;3.17;;;;;;;2.67;74.33;100640.07;1765213;80;21460;-73
2022/12/28 06:21:24;;;;;;;4.28;2.98;;;;;;;2.67;74.31;100634.40;1720893;82;22558;-73
2022/12/28 06:23:51;;;;;;;7.47;3.80;;;;;;;2.69;74.35;100650.82;1730371;83;21011;-72
2022/12/28 06:26:20;;;;;;;7.67;3.55;;;;;;;2.70;74.33;100647.33;1740176;82;21518;-72
2022/12/28 06:28:46;;;;;;;5.45;3.33;;;;;;;2.72;74.30;100636.83;1718190;83;21043;-73
2022/12/28 06:31:16;;;;;;;7.15;3.62;;;;;;;2.72;74.31;100648.11;1718063;83;20957;-74
2022/12/28 06:33:43;;;;;;;5.60;3.22;;;;;;;2.74;74.31;100646.73;1726331;81;21953;-72
2022/12/28 06:36:18;;;;;;;6.20;3.45;;;;;;;2.76;74.29;100655.33;1738537;81;21445;-72
2022/12/28 06:38:46;;;;;;;6.95;3.58;;;;;;;2.78;74.24;100643.91;1749365;82;21012;-74
2022/12/28 06:41:13;;;;;;;7.72;3.58;;;;;;;2.79;74.17;100659.11;1679880;85;21032;-73
2022/12/28 06:43:41;;;;;;;4.78;3.02;;;;;;;2.79;74.12;100659.95;1698430;84;20956;-75
2022/12/28 06:46:07;;;;;;;5.95;3.25;;;;;;;2.80;74.09;100663.44;1680802;85;21837;-71
2022/12/28 06:48:35;;;;;;;7.17;3.33;;;;;;;2.81;74.04;100666.44;1680809;85;21075;-72
2022/12/28 06:51:04;;;;;;;5.12;3.25;;;;;;;2.83;74.05;100675.88;1681309;85;20983;-73
2022/12/28 06:53:34;;;;;;;6.08;3.50;;;;;;;2.85;73.96;100681.88;1697284;84;21035;-72
2022/12/28 06:56:11;;;;;;;10.23;3.80;;;;;;;2.87;73.93;100688.33;1709777;84;21019;-72
2022/12/28 06:58:38;;;;;;;7.72;4.10;;;;;;;2.90;73.86;100686.91;1708900;83;22491;-72
2022/12/28 07:01:19;;;;;;;8.63;4.42;;;;;;;2.92;73.67;100682.47;1696334;83;21233;-73
2022/12/28 07:03:47;;;;;;;6.42;4.35;;;;;;;2.95;73.64;100696.68;1681117;85;21023;-72
2022/12/28 07:06:18;;;;;;;9.28;3.90;;;;;;;3.00;73.53;100695.19;1680737;85;20987;-72
2022/12/28 07:08:43;;;;;;;6.60;3.27;;;;;;;3.03;73.57;100697.66;1680547;85;21442;-72
2022/12/28 07:11:15;;;;;;;7.20;3.85;;;;;;;3.10;73.46;100690.81;1682072;84;22227;-73
2022/12/28 07:13:42;;;;;;;5.25;3.17;;;;;;;3.16;73.40;100700.12;1681419;85;21087;-74
2022/12/28 07:16:17;;;;;;;5.95;3.40;;;;;;;3.19;73.23;100700.00;1680857;85;21043;-74
2022/12/28 07:18:44;;;;;;;7.83;3.50;;;;;;;3.20;73.23;100709.98;1682055;84;20996;-75
2022/12/28 07:21:14;;;;;;;7.85;3.52;;;;;;;3.21;73.11;100711.22;1681054;85;20888;-74
2022/12/28 07:23:41;;;;;;;8.63;3.08;;;;;;;3.21;73.00;100709.07;1681139;85;22497;-74
2022/12/28 07:26:16;;;;;;;6.10;3.50;;;;;;;3.21;73.04;100712.53;1681520;84;21079;-74
2022/12/28 07:28:44;;;;;;;5.55;3.17;;;;;;;3.22;72.98;100723.36;1681224;85;21003;-74
2022/12/28 07:31:17;;;;;;;7.75;3.80;;;;;;;3.22;73.00;100718.13;1680990;85;21044;-74
2022/12/28 07:33:44;;;;;;;6.37;3.70;;;;;;;3.23;72.96;100715.91;1701230;83;21446;-75
2022/12/28 07:36:15;;;;;;;6.53;3.37;;;;;;;3.24;72.98;100716.75;1708652;84;20952;-76
2022/12/28 07:38:42;;;;;;;7.22;3.67;;;;;;;3.22;72.89;100720.74;1753804;81;21360;-75
2022/12/28 07:41:15;;;;;;;6.08;3.67;;;;;;;3.20;72.86;100721.27;1760025;81;21012;-75
2022/12/28 07:43:41;;;;;;;7.00;4.00;;;;;;;3.21;72.92;100731.26;1758532;81;21021;-77
2022/12/28 07:46:10;;;;;;;5.00;3.30;;;;;;;3.22;72.88;100734.25;1758375;81;21051;-73
2022/12/28 07:48:37;;;;;;;5.50;3.55;;;;;;;3.22;72.73;100739.48;1758609;81;21815;-76
2022/12/28 07:51:14;;;;;;;7.92;4.25;;;;;;;3.23;72.77;100738.09;1755325;81;21202;-74
2022/12/28 07:53:43;;;;;;;8.70;5.05;;;;;;;3.28;72.71;100748.33;1729721;82;21480;-72
2022/12/28 07:56:09;;;;;;;32.28;19.07;;;;;;;3.29;72.56;100743.06;1729984;83;21000;-74
2022/12/28 07:58:36;;;;;;;17.10;9.60;;;;;;;3.33;72.50;100739.39;1729701;83;21016;-75
2022/12/28 08:01:08;;;;;;;8.80;5.85;;;;;;;3.36;72.21;100732.72;1734858;81;21794;-76
2022/12/28 08:03:35;;;;;;;9.05;6.62;;;;;;;3.37;72.21;100740.94;1729569;82;21530;-77
2022/12/28 08:06:10;;;;;;;8.95;7.15;;;;;;;3.41;72.22;100742.52;1730030;83;21427;-80
2022/12/28 08:08:39;;;;;;;9.18;5.92;;;;;;;3.43;72.07;100739.84;1730502;81;20992;-79
2022/12/28 08:11:09;;;;;;;8.15;5.15;;;;;;;3.47;71.98;100736.62;1730026;83;21589;-75
2022/12/28 08:13:38;;;;;;;9.03;4.20;;;;;;;3.50;71.95;100736.51;1729735;83;21845;-73
2022/12/28 08:16:05;;;;;;;6.92;4.10;;;;;;;3.53;71.90;100745.50;1729920;83;21538;-74
2022/12/28 08:18:33;;;;;;;11.20;4.50;;;;;;;3.56;71.84;100751.89;1746659;81;21020;-76
2022/12/28 08:21:03;;;;;;;43.17;8.05;;;;;;;3.58;71.66;100748.77;1758275;81;21007;-77
2022/12/28 08:23:31;;;;;;;30.45;6.42;;;;;;;3.62;71.67;100756.39;1758393;81;20948;-75
2022/12/28 08:26:13;;;;;;;9.28;4.22;;;;;;;3.66;71.47;100761.00;1745180;81;21753;-76
2022/12/28 08:28:40;;;;;;;51.05;8.50;;;;;;;3.68;71.32;100761.35;1729684;82;21048;-74
2022/12/28 08:31:10;;;;;;;12.50;5.08;;;;;;;3.69;71.16;100770.03;1729820;82;21071;-75
2022/12/28 08:33:38;;;;;;;5.72;3.95;;;;;;;3.70;71.12;100763.44;1729607;81;21514;-74
2022/12/28 08:36:06;;;;;;;6.90;3.92;;;;;;;3.72;71.06;100758.98;1730881;81;21394;-80
2022/12/28 08:38:33;;;;;;;11.10;4.25;;;;;;;3.73;70.77;100763.74;1721929;82;21864;-75
2022/12/28 08:41:02;;;;;;;7.30;4.00;;;;;;;3.70;70.62;100767.35;1718219;83;21241;-75
2022/12/28 08:43:29;;;;;;;7.30;3.72;;;;;;;3.65;70.43;100767.15;1718976;82;21013;-77
2022/12/28 08:46:01;;;;;;;5.37;3.42;;;;;;;3.62;70.54;100772.52;1718474;83;21495;-73
2022/12/28 08:48:28;;;;;;;6.62;3.80;;;;;;;3.63;70.55;100772.91;1718497;83;21023;-73
2022/12/28 08:51:01;;;;;;;7.83;3.98;;;;;;;3.64;70.55;100777.21;1718381;83;21883;-75
2022/12/28 08:53:28;;;;;;;7.42;4.03;;;;;;;3.63;70.55;100771.14;1717502;82;21491;-74
2022/12/28 08:55:55;;;;;;;7.05;4.40;;;;;;;3.66;70.54;100773.61;1698920;83;21473;-77
2022/12/28 08:58:22;;;;;;;6.33;3.98;;;;;;;3.71;70.57;100771.66;1746809;82;20957;-77
2022/12/28 09:00:48;;;;;;;5.95;3.70;;;;;;;3.81;70.77;100766.86;1745780;81;21053;-77
2022/12/28 09:03:15;;;;;;;5.80;3.58;;;;;;;3.90;70.51;100774.29;1769927;81;21781;-81
2022/12/28 09:05:42;;;;;;;6.20;3.90;;;;;;;3.99;70.23;100770.41;1769610;81;21002;-74
2022/12/28 09:08:09;;;;;;;6.08;3.55;;;;;;;4.08;70.28;100778.30;1768167;81;21038;-79
2022/12/28 09:10:36;;;;;;;5.62;3.62;;;;;;;4.14;70.02;100796.29;1748297;82;21526;-76
2022/12/28 09:13:02;;;;;;;6.58;3.58;;;;;;;4.17;69.60;100786.56;1748937;81;21408;-82
2022/12/28 09:15:31;;;;;;;6.75;3.60;;;;;;;4.22;69.29;100775.87;1761320;80;21181;-79
2022/12/28 09:17:57;;;;;;;6.15;3.55;;;;;;;4.29;69.33;100785.98;1722495;81;21020;-76
2022/12/28 09:20:23;;;;;;;5.87;3.70;;;;;;;4.35;69.00;100791.39;1718911;83;21016;-80
2022/12/28 09:22:50;;;;;;;6.92;3.58;;;;;;;4.39;68.52;100795.55;1718569;83;21008;-78
2022/12/28 09:25:16;;;;;;;6.12;3.60;;;;;;;4.45;68.55;100795.27;1719885;82;21000;-78
2022/12/28 09:27:46;;;;;;;5.80;3.98;;;;;;;4.50;68.26;100800.27;1729016;83;21930;-80
2022/12/28 09:30:14;;;;;;;9.60;4.72;;;;;;;4.52;67.90;100791.42;1665556;83;20970;-80
2022/12/28 09:32:41;;;;;;;6.42;3.92;;;;;;;4.53;67.57;100790.50;1707528;81;21374;-77
2022/12/28 09:35:08;;;;;;;4.92;3.62;;;;;;;4.56;67.42;100804.76;1758453;80;20983;-79
2022/12/28 09:37:34;;;;;;;5.62;3.62;;;;;;;4.57;67.28;100790.75;1759671;79;21050;-77
2022/12/28 09:40:01;;;;;;;7.75;3.60;;;;;;;4.57;67.02;100792.06;1762142;81;21961;-75
2022/12/28 09:42:27;;;;;;;6.50;3.40;;;;;;;4.62;67.09;100798.83;1761736;81;21102;-79
2022/12/28 09:45:06;;;;;;;7.28;3.52;;;;;;;4.70;67.08;100789.69;1748100;82;20992;-78
2022/12/28 09:47:50;;;;;;;5.40;3.30;;;;;;;4.78;66.82;100795.41;1756462;81;20988;-76
2022/12/28 09:50:27;;;;;;;4.62;3.10;;;;;;;4.89;66.60;100801.42;1754981;81;21075;-75
2022/12/28 09:53:25;;;;;;;8.45;3.58;;;;;;;5.02;66.19;100799.92;1756915;81;22457;-76
2022/12/28 09:56:00;;;;;;;4.78;3.10;;;;;;;5.09;65.37;100814.38;1754233;81;20948;-75
2022/12/28 09:58:29;;;;;;;6.67;3.22;;;;;;;5.09;64.66;100822.69;1756769;81;21506;-76
2022/12/28 10:00:58;;;;;;;5.47;3.05;;;;;;;5.09;64.83;100818.77;1746939;81;20980;-75
2022/12/28 10:03:40;;;;;;;6.20;3.17;;;;;;;5.14;64.85;100821.55;1744164;82;21055;-76
2022/12/28 10:06:17;;;;;;;6.37;3.35;;;;;;;5.19;63.93;100816.07;1744061;82;21800;-75
2022/12/28 10:08:54;;;;;;;6.90;3.10;;;;;;;5.13;64.08;100817.25;1749573;81;20968;-75
2022/12/28 10:11:27;;;;;;;5.28;2.70;;;;;;;5.16;63.50;100825.41;1761093;81;20955;-75
2022/12/28 10:13:56;;;;;;;4.58;2.60;;;;;;;5.11;63.17;100822.15;1762158;81;20995;-73
2022/12/28 10:16:26;;;;;;;7.95;4.65;;;;;;;5.14;63.16;100827.25;1761668;81;21082;-75
2022/12/28 10:18:53;;;;;;;7.33;4.50;;;;;;;5.15;62.89;100828.48;1747890;82;21928;-75
2022/12/28 10:21:22;;;;;;;6.30;3.45;;;;;;;5.15;62.90;100822.40;1747922;82;20957;-77
2022/12/28 10:23:51;;;;;;;8.95;4.20;;;;;;;5.15;62.19;100828.48;1746569;82;20980;-73
2022/12/28 10:26:19;;;;;;;6.00;3.30;;;;;;;5.13;62.19;100832.95;1718056;83;21039;-72
2022/12/28 10:28:55;;;;;;;6.75;3.00;;;;;;;5.15;62.36;100838.95;1720576;82;21052;-73
2022/12/28 10:31:31;;;;;;;5.65;2.70;;;;;;;5.18;62.00;100838.80;1717974;83;22562;-74
2022/12/28 10:33:58;;;;;;;6.03;2.70;;;;;;;5.26;62.10;100848.05;1744376;81;21059;-75
2022/12/28 10:36:24;;;;;;;5.58;2.70;;;;;;;5.31;61.74;100847.37;1726319;83;20987;-75
2022/12/28 10:38:53;;;;;;;5.17;2.60;;;;;;;5.33;60.77;100846.36;1724874;83;20964;-74
2022/12/28 10:41:20;;;;;;;5.87;2.90;;;;;;;5.25;59.83;100843.28;1729562;81;21541;-76
2022/12/28 10:43:50;;;;;;;5.78;3.12;;;;;;;5.13;60.15;100840.81;1718373;83;22558;-76
2022/12/28 10:46:23;;;;;;;5.62;2.30;;;;;;;5.02;59.91;100840.50;1718700;83;21024;-72
2022/12/28 10:48:56;;;;;;;5.62;2.77;;;;;;;4.90;60.31;100843.69;1718910;83;21024;-77
2022/12/28 10:51:26;;;;;;;5.37;2.85;;;;;;;4.80;60.45;100840.66;1719951;82;20976;-74
2022/12/28 10:53:55;;;;;;;7.70;2.90;;;;;;;4.80;60.81;100847.67;1728884;83;21023;-73
2022/12/28 10:56:32;;;;;;;5.72;2.87;;;;;;;4.88;61.31;100843.77;1713071;83;21836;-75
2022/12/28 10:59:26;;;;;;;7.25;3.67;;;;;;;5.06;61.44;100852.96;1732989;81;20948;-74
2022/12/28 11:01:55;;;;;;;9.30;3.77;;;;;;;5.24;61.43;100862.53;1748670;82;21000;-75
2022/12/28 11:04:23;;;;;;;5.37;3.25;;;;;;;5.41;61.24;100864.32;1719093;82;21391;-75
2022/12/28 11:06:59;;;;;;;6.80;3.55;;;;;;;5.54;60.93;100860.61;1748542;81;21048;-74
2022/12/28 11:09:36;;;;;;;7.65;2.98;;;;;;;5.65;60.18;100865.69;1746460;81;21933;-74
2022/12/28 11:12:25;;;;;;;7.33;3.40;;;;;;;5.77;59.75;100872.53;1747062;82;21408;-75
2022/12/28 11:14:52;;;;;;;8.83;3.62;;;;;;;5.88;59.65;100863.64;1745577;82;20997;-75
2022/12/28 11:17:22;;;;;;;7.25;3.00;;;;;;;6.01;58.78;100863.44;1748700;82;21096;-75
2022/12/28 11:19:54;;;;;;;7.53;3.20;;;;;;;6.14;58.41;100856.60;1748011;82;21048;-74
2022/12/28 11:22:25;;;;;;;6.78;3.02;;;;;;;6.28;58.04;100866.38;1748502;82;22501;-74
2022/12/28 11:24:51;;;;;;;5.72;2.80;;;;;;;6.38;57.24;100872.82;1746411;81;21408;-76
2022/12/28 11:27:19;;;;;;;4.53;2.70;;;;;;;6.43;56.85;100862.91;1727677;83;21394;-75
2022/12/28 11:29:50;;;;;;;9.10;3.70;;;;;;;6.52;56.49;100869.43;1746768;81;21056;-75
2022/12/28 11:32:41;;;;;;;5.80;3.02;;;;;;;6.60;56.76;100860.20;1727747;83;23889;-74
2022/12/28 11:35:10;;;;;;;5.97;2.98;;;;;;;6.58;56.24;100859.92;1718742;83;21959;-75
2022/12/28 11:37:36;;;;;;;8.55;3.70;;;;;;;6.47;55.82;100869.70;1690328;83;21048;-75
2022/12/28 11:40:05;;;;;;;6.58;3.77;;;;;;;6.31;55.92;100872.30;1667533;83;21335;-74
2022/12/28 11:42:37;;;;;;;6.95;3.62;;;;;;;6.12;56.05;100879.45;1735680;82;21520;-74
2022/12/28 11:45:12;;;;;;;7.80;3.67;;;;;;;5.95;55.89;100891.28;1746925;82;20970;-74
2022/12/28 11:47:39;;;;;;;10.35;3.50;;;;;;;5.73;56.17;100886.27;1727330;83;21814;-75
2022/12/28 11:50:37;;;;;;;7.33;3.08;;;;;;;5.57;56.23;100887.49;1732037;81;21086;-75
2022/12/28 11:53:22;;;;;;;6.03;3.40;;;;;;;5.41;56.37;100887.90;1690356;83;20960;-75
2022/12/28 11:55:56;;;;;;;8.35;4.97;;;;;;;5.37;57.36;100896.81;1718642;83;21012;-75
2022/12/28 11:58:41;;;;;;;7.10;3.83;;;;;;;5.54;58.40;100902.07;1718445;82;20959;-75
2022/12/28 12:01:17;;;;;;;7.85;3.67;;;;;;;5.71;57.78;100889.44;1741105;82;21689;-74
2022/12/28 12:04:02;;;;;;;6.97;3.12;;;;;;;5.80;57.76;100890.28;1738558;82;20952;-77
2022/12/28 12:06:47;;;;;;;6.25;2.95;;;;;;;5.99;58.09;100879.25;1741432;82;21450;-73
2022/12/28 12:09:23;;;;;;;9.18;3.42;;;;;;;6.34;57.95;100884.85;1748567;82;21009;-74
2022/12/28 12:12:02;;;;;;;7.47;3.27;;;;;;;6.63;56.79;100889.37;1712567;82;20873;-74
2022/12/28 12:14:38;;;;;;;8.48;2.80;;;;;;;6.75;55.72;100896.56;1748604;81;21909;-75
2022/12/28 12:17:34;;;;;;;4.72;2.70;;;;;;;6.78;54.74;100889.85;1746641;81;20891;-75
2022/12/28 12:20:06;;;;;;;6.40;2.90;;;;;;;6.80;54.90;100903.73;1746913;82;20977;-76